sensor_id;sensor_type;location;lat;lon;timestamp;P1;durP1;ratioP1;P2;durP2;ratioP2
9445;SDS011;4761;49.490;10.908;2023-03-08T00:01:30;1.60;;;1.50;;
9445;SDS011;4761;49.490;10.908;2023-03-08T00:03:56;1.60;;;1.50;;
9445;SDS011;4761;49.490;10.908;2023-03-08T00:06:22;1.87;;;1.67;;
9445;SDS011;4761;49.490;10.908;2023-03-08T00:08:49;1.50;;;1.40;;
9445;SDS011;4761;49.490;10.908;2023-03-08T00:11:18;1.83;;;1.50;;
9445;SDS011;4761;49.490;10.908;2023-03-08T00:13:43;1.73;;;1.60;;
9445;SDS011;4761;49.490;10.908;2023-03-08T00:16:09;1.77;;;1.20;;
9445;SDS011;4761;49.490;10.908;2023-03-08T00:18:36;2.50;;;1.57;;
9445;SDS011;4761;49.490;10.908;2023-03-08T00:21:06;1.40;;;1.30;;
9445;SDS011;4761;49.490;10.908;2023-03-08T00:23:36;1.70;;;1.40;;
9445;SDS011;4761;49.490;10.908;2023-03-08T00:26:02;2.03;;;1.47;;
9445;SDS011;4761;49.490;10.908;2023-03-08T00:28:28;2.10;;;1.53;;
9445;SDS011;4761;49.490;10.908;2023-03-08T00:30:54;1.40;;;1.30;;
9445;SDS011;4761;49.490;10.908;2023-03-08T00:33:21;1.40;;;1.30;;
9445;SDS011;4761;49.490;10.908;2023-03-08T00:35:56;1.73;;;1.47;;
9445;SDS011;4761;49.490;10.908;2023-03-08T00:38:30;1.53;;;1.43;;
9445;SDS011;4761;49.490;10.908;2023-03-08T00:40:57;1.50;;;1.40;;
9445;SDS011;4761;49.490;10.908;2023-03-08T00:43:22;2.27;;;1.77;;
9445;SDS011;4761;49.490;10.908;2023-03-08T00:45:48;1.60;;;1.50;;
9445;SDS011;4761;49.490;10.908;2023-03-08T00:48:14;1.93;;;1.70;;
9445;SDS011;4761;49.490;10.908;2023-03-08T00:50:40;1.43;;;1.33;;
9445;SDS011;4761;49.490;10.908;2023-03-08T00:53:05;1.73;;;1.60;;
9445;SDS011;4761;49.490;10.908;2023-03-08T00:55:31;1.43;;;1.30;;
9445;SDS011;4761;49.490;10.908;2023-03-08T00:57:56;1.50;;;1.40;;
9445;SDS011;4761;49.490;10.908;2023-03-08T01:00:22;1.70;;;1.53;;
9445;SDS011;4761;49.490;10.908;2023-03-08T01:02:48;1.60;;;1.50;;
9445;SDS011;4761;49.490;10.908;2023-03-08T01:05:13;1.53;;;1.43;;
9445;SDS011;4761;49.490;10.908;2023-03-08T01:07:39;1.40;;;1.30;;
9445;SDS011;4761;49.490;10.908;2023-03-08T01:10:05;1.63;;;1.53;;
9445;SDS011;4761;49.490;10.908;2023-03-08T01:12:31;1.40;;;1.30;;
9445;SDS011;4761;49.490;10.908;2023-03-08T01:15:00;1.70;;;1.60;;
9445;SDS011;4761;49.490;10.908;2023-03-08T01:17:25;1.83;;;1.60;;
9445;SDS011;4761;49.490;10.908;2023-03-08T01:19:51;1.80;;;1.40;;
9445;SDS011;4761;49.490;10.908;2023-03-08T01:22:16;1.40;;;1.30;;
9445;SDS011;4761;49.490;10.908;2023-03-08T01:24:45;1.80;;;1.70;;
9445;SDS011;4761;49.490;10.908;2023-03-08T01:27:11;1.90;;;1.40;;
9445;SDS011;4761;49.490;10.908;2023-03-08T01:29:37;1.60;;;1.50;;
9445;SDS011;4761;49.490;10.908;2023-03-08T01:32:03;1.70;;;1.60;;
9445;SDS011;4761;49.490;10.908;2023-03-08T01:34:28;1.60;;;1.43;;
9445;SDS011;4761;49.490;10.908;2023-03-08T01:36:54;2.73;;;1.50;;
9445;SDS011;4761;49.490;10.908;2023-03-08T01:39:20;1.70;;;1.60;;
9445;SDS011;4761;49.490;10.908;2023-03-08T01:41:45;1.90;;;1.37;;
9445;SDS011;4761;49.490;10.908;2023-03-08T01:44:15;1.90;;;1.70;;
9445;SDS011;4761;49.490;10.908;2023-03-08T01:46:42;3.00;;;1.67;;
9445;SDS011;4761;49.490;10.908;2023-03-08T01:54:34;1.70;;;1.60;;
9445;SDS011;4761;49.490;10.908;2023-03-08T01:57:04;2.90;;;1.60;;
9445;SDS011;4761;49.490;10.908;2023-03-08T01:59:35;1.50;;;1.40;;
9445;SDS011;4761;49.490;10.908;2023-03-08T02:02:02;1.90;;;1.60;;
9445;SDS011;4761;49.490;10.908;2023-03-08T02:04:28;3.40;;;1.60;;
9445;SDS011;4761;49.490;10.908;2023-03-08T02:06:54;1.40;;;1.30;;
9445;SDS011;4761;49.490;10.908;2023-03-08T02:09:19;1.50;;;1.40;;
9445;SDS011;4761;49.490;10.908;2023-03-08T02:11:45;1.90;;;1.70;;
9445;SDS011;4761;49.490;10.908;2023-03-08T02:14:12;1.70;;;1.60;;
9445;SDS011;4761;49.490;10.908;2023-03-08T02:16:38;2.50;;;1.60;;
9445;SDS011;4761;49.490;10.908;2023-03-08T02:19:05;1.40;;;1.30;;
9445;SDS011;4761;49.490;10.908;2023-03-08T02:21:36;1.40;;;1.30;;
9445;SDS011;4761;49.490;10.908;2023-03-08T02:24:06;1.50;;;1.40;;
9445;SDS011;4761;49.490;10.908;2023-03-08T02:26:46;1.40;;;1.30;;
9445;SDS011;4761;49.490;10.908;2023-03-08T02:29:12;1.97;;;1.50;;
9445;SDS011;4761;49.490;10.908;2023-03-08T02:31:37;1.50;;;1.40;;
9445;SDS011;4761;49.490;10.908;2023-03-08T02:34:03;1.60;;;1.50;;
9445;SDS011;4761;49.490;10.908;2023-03-08T02:36:29;1.40;;;1.30;;
9445;SDS011;4761;49.490;10.908;2023-03-08T02:38:54;1.40;;;1.30;;
9445;SDS011;4761;49.490;10.908;2023-03-08T02:41:20;1.50;;;1.40;;
9445;SDS011;4761;49.490;10.908;2023-03-08T02:43:45;1.60;;;1.50;;
9445;SDS011;4761;49.490;10.908;2023-03-08T02:46:11;1.73;;;1.63;;
9445;SDS011;4761;49.490;10.908;2023-03-08T02:48:38;1.60;;;1.50;;
9445;SDS011;4761;49.490;10.908;2023-03-08T02:51:03;1.50;;;1.40;;
9445;SDS011;4761;49.490;10.908;2023-03-08T02:53:29;1.93;;;1.70;;
9445;SDS011;4761;49.490;10.908;2023-03-08T02:55:54;1.57;;;1.47;;
9445;SDS011;4761;49.490;10.908;2023-03-08T02:58:20;1.87;;;1.50;;
9445;SDS011;4761;49.490;10.908;2023-03-08T03:00:45;1.77;;;1.43;;
9445;SDS011;4761;49.490;10.908;2023-03-08T03:03:11;1.57;;;1.47;;
9445;SDS011;4761;49.490;10.908;2023-03-08T03:05:40;1.70;;;1.57;;
9445;SDS011;4761;49.490;10.908;2023-03-08T03:08:07;1.53;;;1.40;;
9445;SDS011;4761;49.490;10.908;2023-03-08T03:10:34;1.40;;;1.30;;
9445;SDS011;4761;49.490;10.908;2023-03-08T03:13:00;1.60;;;1.50;;
9445;SDS011;4761;49.490;10.908;2023-03-08T03:15:26;1.60;;;1.50;;
9445;SDS011;4761;49.490;10.908;2023-03-08T03:17:52;1.43;;;1.33;;
9445;SDS011;4761;49.490;10.908;2023-03-08T03:20:17;2.60;;;1.60;;
9445;SDS011;4761;49.490;10.908;2023-03-08T03:22:43;1.50;;;1.40;;
9445;SDS011;4761;49.490;10.908;2023-03-08T03:25:11;1.43;;;1.33;;
9445;SDS011;4761;49.490;10.908;2023-03-08T03:27:36;2.13;;;1.60;;
9445;SDS011;4761;49.490;10.908;2023-03-08T03:30:03;1.90;;;1.70;;
9445;SDS011;4761;49.490;10.908;2023-03-08T03:32:29;1.90;;;1.60;;
9445;SDS011;4761;49.490;10.908;2023-03-08T03:34:55;1.60;;;1.50;;
9445;SDS011;4761;49.490;10.908;2023-03-08T03:37:21;1.80;;;1.70;;
9445;SDS011;4761;49.490;10.908;2023-03-08T03:39:46;1.77;;;1.60;;
9445;SDS011;4761;49.490;10.908;2023-03-08T03:42:12;2.07;;;1.70;;
9445;SDS011;4761;49.490;10.908;2023-03-08T03:44:37;1.57;;;1.47;;
9445;SDS011;4761;49.490;10.908;2023-03-08T03:47:03;1.87;;;1.70;;
9445;SDS011;4761;49.490;10.908;2023-03-08T03:49:29;1.67;;;1.53;;
9445;SDS011;4761;49.490;10.908;2023-03-08T03:51:55;2.10;;;1.83;;
9445;SDS011;4761;49.490;10.908;2023-03-08T03:54:20;2.10;;;1.63;;
9445;SDS011;4761;49.490;10.908;2023-03-08T03:56:46;2.07;;;1.87;;
9445;SDS011;4761;49.490;10.908;2023-03-08T03:59:11;1.57;;;1.47;;
9445;SDS011;4761;49.490;10.908;2023-03-08T04:01:38;1.60;;;1.50;;
9445;SDS011;4761;49.490;10.908;2023-03-08T04:04:04;1.70;;;1.60;;
9445;SDS011;4761;49.490;10.908;2023-03-08T04:06:30;1.60;;;1.50;;
9445;SDS011;4761;49.490;10.908;2023-03-08T04:08:58;1.60;;;1.50;;
9445;SDS011;4761;49.490;10.908;2023-03-08T04:11:33;1.67;;;1.50;;
9445;SDS011;4761;49.490;10.908;2023-03-08T04:14:00;1.60;;;1.50;;
9445;SDS011;4761;49.490;10.908;2023-03-08T04:16:27;1.63;;;1.53;;
9445;SDS011;4761;49.490;10.908;2023-03-08T04:18:56;1.60;;;1.50;;
9445;SDS011;4761;49.490;10.908;2023-03-08T04:21:23;2.17;;;1.60;;
9445;SDS011;4761;49.490;10.908;2023-03-08T04:23:49;1.70;;;1.60;;
9445;SDS011;4761;49.490;10.908;2023-03-08T04:26:15;1.77;;;1.67;;
9445;SDS011;4761;49.490;10.908;2023-03-08T04:28:41;2.20;;;2.00;;
9445;SDS011;4761;49.490;10.908;2023-03-08T04:31:25;2.03;;;1.80;;
9445;SDS011;4761;49.490;10.908;2023-03-08T04:33:53;2.00;;;1.80;;
9445;SDS011;4761;49.490;10.908;2023-03-08T04:36:19;2.20;;;2.00;;
9445;SDS011;4761;49.490;10.908;2023-03-08T04:38:45;1.80;;;1.60;;
9445;SDS011;4761;49.490;10.908;2023-03-08T04:41:11;2.67;;;1.77;;
9445;SDS011;4761;49.490;10.908;2023-03-08T04:43:38;1.90;;;1.80;;
9445;SDS011;4761;49.490;10.908;2023-03-08T04:46:05;2.93;;;2.03;;
9445;SDS011;4761;49.490;10.908;2023-03-08T04:48:31;1.93;;;1.80;;
9445;SDS011;4761;49.490;10.908;2023-03-08T04:50:57;1.97;;;1.70;;
9445;SDS011;4761;49.490;10.908;2023-03-08T04:53:25;1.93;;;1.67;;
9445;SDS011;4761;49.490;10.908;2023-03-08T04:55:51;2.10;;;1.90;;
9445;SDS011;4761;49.490;10.908;2023-03-08T04:58:17;1.77;;;1.67;;
9445;SDS011;4761;49.490;10.908;2023-03-08T05:00:43;2.00;;;1.80;;
9445;SDS011;4761;49.490;10.908;2023-03-08T05:03:09;2.07;;;1.83;;
9445;SDS011;4761;49.490;10.908;2023-03-08T05:05:35;1.83;;;1.70;;
9445;SDS011;4761;49.490;10.908;2023-03-08T05:08:00;2.20;;;2.00;;
9445;SDS011;4761;49.490;10.908;2023-03-08T05:10:30;2.40;;;2.20;;
9445;SDS011;4761;49.490;10.908;2023-03-08T05:12:56;2.03;;;1.83;;
9445;SDS011;4761;49.490;10.908;2023-03-08T05:15:21;2.07;;;1.80;;
9445;SDS011;4761;49.490;10.908;2023-03-08T05:17:50;2.30;;;1.93;;
9445;SDS011;4761;49.490;10.908;2023-03-08T05:20:16;1.90;;;1.80;;
9445;SDS011;4761;49.490;10.908;2023-03-08T05:22:42;2.20;;;2.00;;
9445;SDS011;4761;49.490;10.908;2023-03-08T05:25:08;2.03;;;1.83;;
9445;SDS011;4761;49.490;10.908;2023-03-08T05:27:36;2.43;;;1.70;;
9445;SDS011;4761;49.490;10.908;2023-03-08T05:30:03;2.43;;;1.97;;
9445;SDS011;4761;49.490;10.908;2023-03-08T05:32:29;3.00;;;2.30;;
9445;SDS011;4761;49.490;10.908;2023-03-08T05:34:54;2.20;;;2.00;;
9445;SDS011;4761;49.490;10.908;2023-03-08T05:37:20;2.37;;;2.10;;
9445;SDS011;4761;49.490;10.908;2023-03-08T05:39:46;2.07;;;1.90;;
9445;SDS011;4761;49.490;10.908;2023-03-08T05:42:12;2.17;;;1.90;;
9445;SDS011;4761;49.490;10.908;2023-03-08T05:44:38;2.17;;;1.90;;
9445;SDS011;4761;49.490;10.908;2023-03-08T05:47:03;2.87;;;2.17;;
9445;SDS011;4761;49.490;10.908;2023-03-08T05:49:29;1.90;;;1.80;;
9445;SDS011;4761;49.490;10.908;2023-03-08T05:51:55;2.53;;;2.10;;
9445;SDS011;4761;49.490;10.908;2023-03-08T05:54:20;2.13;;;1.87;;
9445;SDS011;4761;49.490;10.908;2023-03-08T05:56:46;2.30;;;2.10;;
9445;SDS011;4761;49.490;10.908;2023-03-08T05:59:12;2.27;;;2.00;;
9445;SDS011;4761;49.490;10.908;2023-03-08T06:01:37;2.50;;;1.93;;
9445;SDS011;4761;49.490;10.908;2023-03-08T06:04:03;2.27;;;2.07;;
9445;SDS011;4761;49.490;10.908;2023-03-08T06:06:29;2.67;;;1.83;;
9445;SDS011;4761;49.490;10.908;2023-03-08T06:08:54;2.53;;;2.33;;
9445;SDS011;4761;49.490;10.908;2023-03-08T06:11:20;2.10;;;1.90;;
9445;SDS011;4761;49.490;10.908;2023-03-08T06:13:46;3.40;;;2.20;;
9445;SDS011;4761;49.490;10.908;2023-03-08T06:16:11;2.50;;;2.30;;
9445;SDS011;4761;49.490;10.908;2023-03-08T06:18:38;2.10;;;1.90;;
9445;SDS011;4761;49.490;10.908;2023-03-08T06:21:05;2.37;;;2.17;;
9445;SDS011;4761;49.490;10.908;2023-03-08T06:23:34;2.60;;;2.23;;
9445;SDS011;4761;49.490;10.908;2023-03-08T06:26:00;2.13;;;1.93;;
9445;SDS011;4761;49.490;10.908;2023-03-08T06:28:26;2.90;;;2.07;;
9445;SDS011;4761;49.490;10.908;2023-03-08T06:30:52;2.20;;;2.00;;
9445;SDS011;4761;49.490;10.908;2023-03-08T06:33:19;3.13;;;2.20;;
9445;SDS011;4761;49.490;10.908;2023-03-08T06:36:03;2.57;;;2.37;;
9445;SDS011;4761;49.490;10.908;2023-03-08T06:38:31;2.27;;;2.00;;
9445;SDS011;4761;49.490;10.908;2023-03-08T06:40:58;2.10;;;1.90;;
9445;SDS011;4761;49.490;10.908;2023-03-08T06:43:24;2.00;;;1.80;;
9445;SDS011;4761;49.490;10.908;2023-03-08T06:45:50;2.20;;;2.00;;
9445;SDS011;4761;49.490;10.908;2023-03-08T06:48:16;2.00;;;1.80;;
9445;SDS011;4761;49.490;10.908;2023-03-08T06:50:42;3.17;;;2.30;;
9445;SDS011;4761;49.490;10.908;2023-03-08T06:53:08;2.20;;;1.90;;
9445;SDS011;4761;49.490;10.908;2023-03-08T06:55:34;2.33;;;2.10;;
9445;SDS011;4761;49.490;10.908;2023-03-08T06:58:00;2.10;;;1.90;;
9445;SDS011;4761;49.490;10.908;2023-03-08T07:00:26;2.10;;;1.90;;
9445;SDS011;4761;49.490;10.908;2023-03-08T07:02:51;7.87;;;6.33;;
9445;SDS011;4761;49.490;10.908;2023-03-08T07:05:17;7.07;;;6.37;;
9445;SDS011;4761;49.490;10.908;2023-03-08T07:07:43;7.43;;;6.60;;
9445;SDS011;4761;49.490;10.908;2023-03-08T07:10:09;6.47;;;5.80;;
9445;SDS011;4761;49.490;10.908;2023-03-08T07:12:36;6.90;;;6.20;;
9445;SDS011;4761;49.490;10.908;2023-03-08T07:15:07;6.73;;;5.67;;
9445;SDS011;4761;49.490;10.908;2023-03-08T07:17:34;6.93;;;6.23;;
9445;SDS011;4761;49.490;10.908;2023-03-08T07:20:01;7.30;;;6.60;;
9445;SDS011;4761;49.490;10.908;2023-03-08T07:22:29;7.30;;;6.53;;
9445;SDS011;4761;49.490;10.908;2023-03-08T07:24:55;9.40;;;6.90;;
9445;SDS011;4761;49.490;10.908;2023-03-08T07:27:21;8.07;;;6.37;;
9445;SDS011;4761;49.490;10.908;2023-03-08T07:29:46;7.20;;;6.50;;
9445;SDS011;4761;49.490;10.908;2023-03-08T07:32:12;10.90;;;9.80;;
9445;SDS011;4761;49.490;10.908;2023-03-08T07:34:38;11.63;;;10.13;;
9445;SDS011;4761;49.490;10.908;2023-03-08T07:37:03;8.30;;;7.33;;
9445;SDS011;4761;49.490;10.908;2023-03-08T07:39:29;7.00;;;6.30;;
9445;SDS011;4761;49.490;10.908;2023-03-08T07:41:54;7.10;;;6.40;;
9445;SDS011;4761;49.490;10.908;2023-03-08T07:44:20;6.20;;;5.60;;
9445;SDS011;4761;49.490;10.908;2023-03-08T07:46:45;5.60;;;5.10;;
9445;SDS011;4761;49.490;10.908;2023-03-08T07:49:11;5.77;;;5.27;;
9445;SDS011;4761;49.490;10.908;2023-03-08T07:51:37;5.97;;;5.37;;
9445;SDS011;4761;49.490;10.908;2023-03-08T07:54:02;6.60;;;6.00;;
9445;SDS011;4761;49.490;10.908;2023-03-08T07:56:28;6.70;;;6.00;;
9445;SDS011;4761;49.490;10.908;2023-03-08T07:58:57;6.97;;;5.67;;
9445;SDS011;4761;49.490;10.908;2023-03-08T08:01:22;6.20;;;5.60;;
9445;SDS011;4761;49.490;10.908;2023-03-08T08:03:49;5.67;;;5.17;;
9445;SDS011;4761;49.490;10.908;2023-03-08T08:06:15;6.53;;;5.40;;
9445;SDS011;4761;49.490;10.908;2023-03-08T08:08:40;6.17;;;5.53;;
9445;SDS011;4761;49.490;10.908;2023-03-08T08:11:13;5.87;;;5.27;;
9445;SDS011;4761;49.490;10.908;2023-03-08T08:13:39;5.50;;;4.97;;
9445;SDS011;4761;49.490;10.908;2023-03-08T08:16:05;5.53;;;4.93;;
9445;SDS011;4761;49.490;10.908;2023-03-08T08:18:31;6.37;;;5.63;;
9445;SDS011;4761;49.490;10.908;2023-03-08T08:21:04;6.23;;;5.60;;
9445;SDS011;4761;49.490;10.908;2023-03-08T08:23:34;5.07;;;4.60;;
9445;SDS011;4761;49.490;10.908;2023-03-08T08:26:03;5.43;;;4.67;;
9445;SDS011;4761;49.490;10.908;2023-03-08T08:28:29;6.57;;;5.67;;
9445;SDS011;4761;49.490;10.908;2023-03-08T08:30:59;5.70;;;5.10;;
9445;SDS011;4761;49.490;10.908;2023-03-08T08:33:27;6.13;;;4.97;;
9445;SDS011;4761;49.490;10.908;2023-03-08T08:35:53;6.07;;;5.47;;
9445;SDS011;4761;49.490;10.908;2023-03-08T08:38:19;5.70;;;5.20;;
9445;SDS011;4761;49.490;10.908;2023-03-08T08:40:45;6.33;;;5.73;;
9445;SDS011;4761;49.490;10.908;2023-03-08T08:43:10;6.07;;;5.43;;
9445;SDS011;4761;49.490;10.908;2023-03-08T08:45:40;5.60;;;5.00;;
9445;SDS011;4761;49.490;10.908;2023-03-08T08:48:07;6.07;;;5.43;;
9445;SDS011;4761;49.490;10.908;2023-03-08T08:50:33;6.27;;;5.67;;
9445;SDS011;4761;49.490;10.908;2023-03-08T08:52:58;6.47;;;5.87;;
9445;SDS011;4761;49.490;10.908;2023-03-08T08:55:24;6.57;;;5.87;;
9445;SDS011;4761;49.490;10.908;2023-03-08T08:57:50;6.10;;;5.50;;
9445;SDS011;4761;49.490;10.908;2023-03-08T09:00:15;7.63;;;6.00;;
9445;SDS011;4761;49.490;10.908;2023-03-08T09:02:41;2.23;;;2.03;;
9445;SDS011;4761;49.490;10.908;2023-03-08T09:05:07;2.77;;;2.00;;
9445;SDS011;4761;49.490;10.908;2023-03-08T09:07:33;2.20;;;2.00;;
9445;SDS011;4761;49.490;10.908;2023-03-08T09:09:58;2.27;;;2.07;;
9445;SDS011;4761;49.490;10.908;2023-03-08T09:12:24;2.20;;;2.00;;
9445;SDS011;4761;49.490;10.908;2023-03-08T09:14:50;2.83;;;2.30;;
9445;SDS011;4761;49.490;10.908;2023-03-08T09:17:15;2.10;;;1.90;;
9445;SDS011;4761;49.490;10.908;2023-03-08T09:19:41;2.83;;;2.20;;
9445;SDS011;4761;49.490;10.908;2023-03-08T09:22:06;3.30;;;2.13;;
9445;SDS011;4761;49.490;10.908;2023-03-08T09:24:32;2.40;;;1.93;;
9445;SDS011;4761;49.490;10.908;2023-03-08T09:26:57;2.43;;;2.00;;
9445;SDS011;4761;49.490;10.908;2023-03-08T09:29:23;2.37;;;2.17;;
9445;SDS011;4761;49.490;10.908;2023-03-08T09:31:48;2.50;;;2.30;;
9445;SDS011;4761;49.490;10.908;2023-03-08T09:34:14;4.83;;;2.30;;
9445;SDS011;4761;49.490;10.908;2023-03-08T09:36:40;2.50;;;2.30;;
9445;SDS011;4761;49.490;10.908;2023-03-08T09:39:06;2.20;;;1.90;;
9445;SDS011;4761;49.490;10.908;2023-03-08T09:41:37;3.30;;;2.30;;
9445;SDS011;4761;49.490;10.908;2023-03-08T09:44:11;2.60;;;2.40;;
9445;SDS011;4761;49.490;10.908;2023-03-08T09:46:41;2.63;;;2.43;;
9445;SDS011;4761;49.490;10.908;2023-03-08T09:49:22;2.67;;;2.43;;
9445;SDS011;4761;49.490;10.908;2023-03-08T09:52:38;2.90;;;2.60;;
9445;SDS011;4761;49.490;10.908;2023-03-08T09:55:04;4.27;;;2.30;;
9445;SDS011;4761;49.490;10.908;2023-03-08T09:57:38;2.57;;;2.37;;
9445;SDS011;4761;49.490;10.908;2023-03-08T10:00:15;3.00;;;2.57;;
9445;SDS011;4761;49.490;10.908;2023-03-08T10:08:17;3.80;;;2.70;;
9445;SDS011;4761;49.490;10.908;2023-03-08T10:11:05;4.50;;;2.60;;
9445;SDS011;4761;49.490;10.908;2023-03-08T10:13:40;3.20;;;2.90;;
9445;SDS011;4761;49.490;10.908;2023-03-08T10:21:23;5.37;;;2.70;;
9445;SDS011;4761;49.490;10.908;2023-03-08T10:24:01;3.00;;;2.70;;
9445;SDS011;4761;49.490;10.908;2023-03-08T10:26:40;3.97;;;2.87;;
9445;SDS011;4761;49.490;10.908;2023-03-08T10:29:08;4.63;;;2.67;;
9445;SDS011;4761;49.490;10.908;2023-03-08T10:31:35;3.23;;;2.63;;
9445;SDS011;4761;49.490;10.908;2023-03-08T10:36:32;3.43;;;2.83;;
9445;SDS011;4761;49.490;10.908;2023-03-08T10:41:35;2.73;;;2.40;;
9445;SDS011;4761;49.490;10.908;2023-03-08T10:44:09;3.40;;;3.07;;
9445;SDS011;4761;49.490;10.908;2023-03-08T10:46:44;3.27;;;2.90;;
9445;SDS011;4761;49.490;10.908;2023-03-08T10:49:16;3.60;;;2.97;;
9445;SDS011;4761;49.490;10.908;2023-03-08T10:51:53;3.33;;;2.87;;
9445;SDS011;4761;49.490;10.908;2023-03-08T10:54:23;3.10;;;2.80;;
9445;SDS011;4761;49.490;10.908;2023-03-08T10:56:56;4.18;;;3.08;;
9445;SDS011;4761;49.490;10.908;2023-03-08T10:59:31;4.03;;;3.00;;
9445;SDS011;4761;49.490;10.908;2023-03-08T11:02:13;5.60;;;3.00;;
9445;SDS011;4761;49.490;10.908;2023-03-08T11:04:52;4.73;;;2.90;;
9445;SDS011;4761;49.490;10.908;2023-03-08T11:07:25;3.30;;;2.83;;
9445;SDS011;4761;49.490;10.908;2023-03-08T11:10:03;3.50;;;2.60;;
9445;SDS011;4761;49.490;10.908;2023-03-08T11:12:39;3.67;;;3.13;;
9445;SDS011;4761;49.490;10.908;2023-03-08T11:15:15;3.33;;;2.90;;
9445;SDS011;4761;49.490;10.908;2023-03-08T11:17:56;3.97;;;2.93;;
9445;SDS011;4761;49.490;10.908;2023-03-08T11:20:45;4.40;;;3.13;;
9445;SDS011;4761;49.490;10.908;2023-03-08T11:23:25;4.13;;;3.10;;
9445;SDS011;4761;49.490;10.908;2023-03-08T11:26:18;3.33;;;2.93;;
9445;SDS011;4761;49.490;10.908;2023-03-08T11:29:04;3.23;;;2.93;;
9445;SDS011;4761;49.490;10.908;2023-03-08T11:31:37;4.07;;;2.63;;
9445;SDS011;4761;49.490;10.908;2023-03-08T11:39:36;3.47;;;2.80;;
9445;SDS011;4761;49.490;10.908;2023-03-08T11:44:52;3.30;;;3.00;;
9445;SDS011;4761;49.490;10.908;2023-03-08T11:50:09;3.83;;;2.90;;
9445;SDS011;4761;49.490;10.908;2023-03-08T11:52:55;2.77;;;2.50;;
9445;SDS011;4761;49.490;10.908;2023-03-08T11:55:44;3.77;;;3.00;;
9445;SDS011;4761;49.490;10.908;2023-03-08T11:58:32;2.90;;;2.40;;
9445;SDS011;4761;49.490;10.908;2023-03-08T12:01:03;3.20;;;2.63;;
9445;SDS011;4761;49.490;10.908;2023-03-08T12:03:36;3.13;;;2.60;;
9445;SDS011;4761;49.490;10.908;2023-03-08T12:06:14;5.03;;;3.10;;
9445;SDS011;4761;49.490;10.908;2023-03-08T12:11:43;3.80;;;3.20;;
9445;SDS011;4761;49.490;10.908;2023-03-08T12:14:17;3.10;;;2.80;;
9445;SDS011;4761;49.490;10.908;2023-03-08T12:29:46;3.77;;;3.30;;
9445;SDS011;4761;49.490;10.908;2023-03-08T12:32:21;4.40;;;3.63;;
9445;SDS011;4761;49.490;10.908;2023-03-08T12:34:58;4.67;;;3.90;;
9445;SDS011;4761;49.490;10.908;2023-03-08T12:37:29;4.53;;;3.40;;
9445;SDS011;4761;49.490;10.908;2023-03-08T12:42:40;4.13;;;3.17;;
9445;SDS011;4761;49.490;10.908;2023-03-08T12:47:52;5.30;;;4.17;;
9445;SDS011;4761;49.490;10.908;2023-03-08T12:50:54;6.50;;;5.27;;
9445;SDS011;4761;49.490;10.908;2023-03-08T12:53:24;8.10;;;5.00;;
9445;SDS011;4761;49.490;10.908;2023-03-08T12:56:00;6.27;;;5.27;;
9445;SDS011;4761;49.490;10.908;2023-03-08T12:58:39;7.43;;;5.20;;
9445;SDS011;4761;49.490;10.908;2023-03-08T13:04:02;7.07;;;4.80;;
9445;SDS011;4761;49.490;10.908;2023-03-08T13:12:10;5.60;;;4.57;;
9445;SDS011;4761;49.490;10.908;2023-03-08T13:20:00;4.40;;;4.00;;
9445;SDS011;4761;49.490;10.908;2023-03-08T13:22:47;5.37;;;4.57;;
9445;SDS011;4761;49.490;10.908;2023-03-08T13:25:25;4.50;;;4.10;;
9445;SDS011;4761;49.490;10.908;2023-03-08T13:28:06;5.57;;;4.47;;
9445;SDS011;4761;49.490;10.908;2023-03-08T13:30:35;5.93;;;4.23;;
9445;SDS011;4761;49.490;10.908;2023-03-08T13:33:12;4.77;;;4.00;;
9445;SDS011;4761;49.490;10.908;2023-03-08T13:35:39;4.67;;;3.77;;
9445;SDS011;4761;49.490;10.908;2023-03-08T13:38:05;5.60;;;4.20;;
9445;SDS011;4761;49.490;10.908;2023-03-08T13:40:30;4.73;;;4.27;;
9445;SDS011;4761;49.490;10.908;2023-03-08T13:43:00;5.80;;;3.87;;
9445;SDS011;4761;49.490;10.908;2023-03-08T13:45:29;4.20;;;3.80;;
9445;SDS011;4761;49.490;10.908;2023-03-08T13:47:56;8.27;;;4.03;;
9445;SDS011;4761;49.490;10.908;2023-03-08T13:50:30;7.17;;;3.87;;
9445;SDS011;4761;49.490;10.908;2023-03-08T13:53:02;7.37;;;4.20;;
9445;SDS011;4761;49.490;10.908;2023-03-08T13:55:34;7.00;;;4.07;;
9445;SDS011;4761;49.490;10.908;2023-03-08T13:58:04;6.23;;;4.20;;
9445;SDS011;4761;49.490;10.908;2023-03-08T14:00:30;8.33;;;3.97;;
9445;SDS011;4761;49.490;10.908;2023-03-08T14:02:59;5.80;;;4.33;;
9445;SDS011;4761;49.490;10.908;2023-03-08T14:05:27;6.80;;;3.73;;
9445;SDS011;4761;49.490;10.908;2023-03-08T14:07:55;5.73;;;3.70;;
9445;SDS011;4761;49.490;10.908;2023-03-08T14:10:31;4.90;;;4.10;;
9445;SDS011;4761;49.490;10.908;2023-03-08T14:13:04;7.50;;;3.80;;
9445;SDS011;4761;49.490;10.908;2023-03-08T14:15:38;4.43;;;3.67;;
9445;SDS011;4761;49.490;10.908;2023-03-08T14:18:16;5.60;;;3.60;;
9445;SDS011;4761;49.490;10.908;2023-03-08T14:21:34;5.60;;;3.60;;
9445;SDS011;4761;49.490;10.908;2023-03-08T14:23:44;4.73;;;3.53;;
9445;SDS011;4761;49.490;10.908;2023-03-08T14:36:58;3.53;;;3.10;;
9445;SDS011;4761;49.490;10.908;2023-03-08T14:39:27;4.00;;;3.30;;
9445;SDS011;4761;49.490;10.908;2023-03-08T14:41:54;4.90;;;3.30;;
9445;SDS011;4761;49.490;10.908;2023-03-08T14:44:29;3.20;;;2.90;;
9445;SDS011;4761;49.490;10.908;2023-03-08T14:46:54;4.07;;;3.20;;
9445;SDS011;4761;49.490;10.908;2023-03-08T14:49:24;3.60;;;3.30;;
9445;SDS011;4761;49.490;10.908;2023-03-08T14:51:52;3.47;;;2.97;;
9445;SDS011;4761;49.490;10.908;2023-03-08T14:56:43;4.13;;;2.90;;
9445;SDS011;4761;49.490;10.908;2023-03-08T14:59:10;4.07;;;3.23;;
9445;SDS011;4761;49.490;10.908;2023-03-08T15:01:36;4.10;;;3.10;;
9445;SDS011;4761;49.490;10.908;2023-03-08T15:04:05;4.33;;;3.23;;
9445;SDS011;4761;49.490;10.908;2023-03-08T15:06:42;3.93;;;2.83;;
9445;SDS011;4761;49.490;10.908;2023-03-08T15:09:08;3.47;;;2.60;;
9445;SDS011;4761;49.490;10.908;2023-03-08T15:11:36;3.10;;;2.50;;
9445;SDS011;4761;49.490;10.908;2023-03-08T15:14:02;3.80;;;2.83;;
9445;SDS011;4761;49.490;10.908;2023-03-08T15:16:27;4.20;;;2.87;;
9445;SDS011;4761;49.490;10.908;2023-03-08T15:18:53;4.17;;;2.90;;
9445;SDS011;4761;49.490;10.908;2023-03-08T15:21:20;2.87;;;2.57;;
9445;SDS011;4761;49.490;10.908;2023-03-08T15:23:48;3.33;;;2.70;;
9445;SDS011;4761;49.490;10.908;2023-03-08T15:26:16;5.60;;;2.90;;
9445;SDS011;4761;49.490;10.908;2023-03-08T15:28:46;2.90;;;2.60;;
9445;SDS011;4761;49.490;10.908;2023-03-08T15:31:11;4.00;;;2.77;;
9445;SDS011;4761;49.490;10.908;2023-03-08T15:33:37;3.60;;;2.60;;
9445;SDS011;4761;49.490;10.908;2023-03-08T15:36:02;3.90;;;2.90;;
9445;SDS011;4761;49.490;10.908;2023-03-08T15:38:28;4.23;;;2.73;;
9445;SDS011;4761;49.490;10.908;2023-03-08T15:40:54;4.07;;;2.40;;
9445;SDS011;4761;49.490;10.908;2023-03-08T15:43:19;4.27;;;2.50;;
9445;SDS011;4761;49.490;10.908;2023-03-08T15:45:45;3.57;;;2.50;;
9445;SDS011;4761;49.490;10.908;2023-03-08T15:48:15;5.37;;;2.67;;
9445;SDS011;4761;49.490;10.908;2023-03-08T15:50:42;3.57;;;2.47;;
9445;SDS011;4761;49.490;10.908;2023-03-08T15:53:08;3.30;;;2.40;;
9445;SDS011;4761;49.490;10.908;2023-03-08T15:55:35;3.70;;;2.90;;
9445;SDS011;4761;49.490;10.908;2023-03-08T15:58:01;8.53;;;2.40;;
9445;SDS011;4761;49.490;10.908;2023-03-08T16:00:27;6.17;;;2.70;;
9445;SDS011;4761;49.490;10.908;2023-03-08T16:02:53;4.70;;;2.43;;
9445;SDS011;4761;49.490;10.908;2023-03-08T16:05:20;4.83;;;2.60;;
9445;SDS011;4761;49.490;10.908;2023-03-08T16:07:51;4.50;;;2.53;;
9445;SDS011;4761;49.490;10.908;2023-03-08T16:10:25;4.47;;;2.50;;
9445;SDS011;4761;49.490;10.908;2023-03-08T16:12:51;3.97;;;2.63;;
9445;SDS011;4761;49.490;10.908;2023-03-08T16:15:17;4.50;;;2.77;;
9445;SDS011;4761;49.490;10.908;2023-03-08T16:17:43;3.30;;;2.23;;
9445;SDS011;4761;49.490;10.908;2023-03-08T16:20:09;3.87;;;2.30;;
9445;SDS011;4761;49.490;10.908;2023-03-08T16:22:36;2.67;;;1.90;;
9445;SDS011;4761;49.490;10.908;2023-03-08T16:25:02;3.50;;;2.20;;
9445;SDS011;4761;49.490;10.908;2023-03-08T16:27:28;2.93;;;2.00;;
9445;SDS011;4761;49.490;10.908;2023-03-08T16:29:55;2.90;;;2.10;;